createdAt,value
2023-11-12T00:02:21.871Z,1.00
2023-11-12T00:04:49.701Z,1.20
2023-11-12T00:07:16.879Z,1.20
2023-11-12T00:09:43.676Z,1.13
2023-11-12T00:12:10.470Z,1.00
2023-11-12T00:14:37.149Z,1.33
2023-11-12T00:17:04.151Z,1.20
2023-11-12T00:19:34.108Z,1.10
2023-11-12T00:22:00.851Z,1.13
2023-11-12T00:24:29.008Z,1.02
2023-11-12T00:26:55.664Z,1.00
2023-11-12T00:29:22.368Z,1.20
2023-11-12T00:31:49.102Z,1.25
2023-11-12T00:34:15.747Z,1.15
2023-11-12T00:36:44.135Z,1.20
2023-11-12T00:39:10.989Z,1.25
2023-11-12T00:41:40.148Z,1.15
2023-11-12T00:44:10.101Z,1.23
2023-11-12T00:46:37.892Z,1.00
2023-11-12T00:49:06.214Z,1.00
2023-11-12T00:51:34.012Z,1.00
2023-11-12T00:54:00.777Z,1.30
2023-11-12T00:56:27.672Z,1.20
2023-11-12T00:58:54.537Z,1.02
2023-11-12T01:01:21.771Z,1.10
2023-11-12T01:03:48.456Z,1.08
2023-11-12T01:06:15.120Z,1.33
2023-11-12T01:08:41.783Z,1.20
2023-11-12T01:11:09.423Z,1.13
2023-11-12T01:13:36.070Z,1.02
2023-11-12T01:16:02.890Z,1.10
2023-11-12T01:18:29.863Z,1.20
2023-11-12T01:20:56.513Z,1.20
2023-11-12T01:23:23.133Z,1.23
2023-11-12T01:25:49.725Z,1.17
2023-11-12T01:28:16.365Z,1.20
2023-11-12T01:30:43.135Z,1.30
2023-11-12T01:33:11.600Z,1.23
2023-11-12T01:35:38.435Z,1.00
2023-11-12T01:38:05.079Z,1.10
2023-11-12T01:40:36.599Z,1.17
2023-11-12T01:43:03.224Z,1.40
2023-11-12T01:45:30.006Z,1.40
2023-11-12T01:47:56.735Z,1.35
2023-11-12T01:50:23.526Z,1.02
2023-11-12T01:52:50.666Z,1.20
2023-11-12T01:55:21.589Z,1.10
2023-11-12T01:57:48.876Z,1.20
2023-11-12T02:00:17.460Z,1.38
2023-11-12T02:02:44.725Z,1.10
2023-11-12T02:05:11.617Z,1.00
2023-11-12T02:07:48.684Z,1.00
2023-11-12T02:10:16.620Z,1.05
2023-11-12T02:12:45.154Z,1.10
2023-11-12T02:15:16.092Z,1.10
2023-11-12T02:17:46.790Z,1.25
2023-11-12T02:20:17.874Z,1.10
2023-11-12T02:22:45.672Z,1.10
2023-11-12T02:25:14.861Z,1.30
2023-11-12T02:27:41.841Z,1.20
2023-11-12T02:30:13.005Z,1.33
2023-11-12T02:32:40.170Z,1.10
2023-11-12T02:35:09.071Z,1.30
2023-11-12T02:37:36.656Z,1.23
2023-11-12T02:40:08.419Z,1.27
2023-11-12T02:42:35.474Z,1.10
2023-11-12T02:45:02.146Z,2.15
2023-11-12T02:47:28.813Z,1.20
2023-11-12T02:50:11.420Z,1.40
2023-11-12T02:52:38.084Z,1.30
2023-11-12T02:55:06.411Z,1.42
2023-11-12T02:57:33.773Z,1.08
2023-11-12T03:00:00.483Z,1.52
2023-11-12T03:02:27.101Z,1.10
2023-11-12T03:04:54.192Z,1.35
2023-11-12T03:07:21.034Z,1.50
2023-11-12T03:09:49.046Z,1.13
2023-11-12T03:12:16.673Z,1.30
2023-11-12T03:14:44.469Z,1.30
2023-11-12T03:17:11.201Z,1.25
2023-11-12T03:19:38.684Z,1.48
2023-11-12T03:22:05.592Z,1.65
2023-11-12T03:24:32.209Z,1.90
2023-11-12T03:26:58.838Z,1.60
2023-11-12T03:29:25.448Z,1.67
2023-11-12T03:31:54.483Z,1.58
2023-11-12T03:34:26.005Z,1.63
2023-11-12T03:36:52.872Z,1.40
2023-11-12T03:39:19.657Z,1.50
2023-11-12T03:41:46.406Z,1.30
2023-11-12T03:44:13.606Z,1.40
2023-11-12T03:46:40.316Z,1.50
2023-11-12T03:49:06.938Z,1.77
2023-11-12T03:51:33.866Z,1.85
2023-11-12T03:54:03.782Z,2.28
2023-11-12T03:56:31.057Z,2.75
2023-11-12T03:58:58.685Z,2.80
2023-11-12T04:01:25.656Z,3.20
2023-11-12T04:03:52.869Z,4.32
2023-11-12T04:06:20.167Z,4.70
2023-11-12T04:08:46.906Z,4.13
2023-11-12T04:11:13.737Z,3.42
2023-11-12T04:13:40.402Z,4.57
2023-11-12T04:16:07.553Z,4.45
2023-11-12T04:18:36.007Z,4.93
2023-11-12T04:21:04.504Z,4.70
2023-11-12T04:23:31.087Z,5.40
2023-11-12T04:25:58.176Z,4.75
2023-11-12T04:28:28.554Z,5.13
2023-11-12T04:30:55.879Z,4.18
2023-11-12T04:33:22.539Z,3.83
2023-11-12T04:35:51.039Z,4.00
2023-11-12T04:38:18.431Z,4.40
2023-11-12T04:40:49.991Z,3.83
2023-11-12T04:43:17.444Z,4.03
2023-11-12T04:45:44.846Z,5.05
2023-11-12T04:48:12.673Z,4.70
2023-11-12T04:50:39.856Z,4.38
2023-11-12T04:53:07.450Z,4.00
2023-11-12T04:55:35.246Z,4.32
2023-11-12T04:58:07.271Z,4.32
2023-11-12T05:00:34.372Z,4.13
2023-11-12T05:03:05.608Z,4.50
2023-11-12T05:05:33.361Z,4.95
2023-11-12T05:08:00.268Z,4.40
2023-11-12T05:10:44.187Z,4.68
2023-11-12T05:13:13.073Z,3.90
2023-11-12T05:15:39.891Z,3.92
2023-11-12T05:18:07.961Z,3.80
2023-11-12T05:20:35.107Z,4.10
2023-11-12T05:23:02.413Z,4.13
2023-11-12T05:25:29.842Z,4.53
2023-11-12T05:27:56.692Z,4.70
2023-11-12T05:30:24.788Z,5.25
2023-11-12T05:32:52.845Z,5.47
2023-11-12T05:35:20.641Z,4.95
2023-11-12T05:37:48.898Z,4.97
2023-11-12T05:40:16.142Z,5.00
2023-11-12T05:42:43.643Z,4.45
2023-11-12T05:45:11.005Z,4.03
2023-11-12T05:47:37.814Z,3.38
2023-11-12T05:50:05.500Z,3.30
2023-11-12T05:52:32.104Z,3.13
2023-11-12T05:54:59.057Z,5.93
2023-11-12T05:57:25.709Z,5.00
2023-11-12T05:59:52.384Z,4.72
2023-11-12T06:02:18.999Z,5.10
2023-11-12T06:04:45.839Z,4.72
2023-11-12T06:07:12.419Z,3.92
2023-11-12T06:09:39.103Z,3.88
2023-11-12T06:12:07.445Z,4.47
2023-11-12T06:14:34.709Z,3.90
2023-11-12T06:17:01.381Z,4.07
2023-11-12T06:19:28.243Z,4.72
2023-11-12T06:21:57.295Z,4.38
2023-11-12T06:24:24.627Z,3.75
2023-11-12T06:26:51.783Z,3.40
2023-11-12T06:29:18.525Z,2.65
2023-11-12T06:31:45.170Z,2.65
2023-11-12T06:34:11.902Z,2.80
2023-11-12T06:36:38.767Z,3.13
2023-11-12T06:39:06.218Z,2.58
2023-11-12T06:41:34.044Z,2.92
2023-11-12T06:44:00.840Z,2.53
2023-11-12T06:46:27.490Z,2.53
2023-11-12T06:48:54.188Z,2.92
2023-11-12T06:51:22.997Z,2.58
2023-11-12T06:53:49.958Z,1.80
2023-11-12T06:56:17.066Z,2.28
2023-11-12T06:58:43.812Z,2.00
2023-11-12T07:01:10.591Z,1.98
2023-11-12T07:03:39.118Z,2.00
2023-11-12T07:06:07.502Z,1.60
2023-11-12T07:08:34.140Z,1.70
2023-11-12T07:11:01.346Z,1.60
2023-11-12T07:13:28.054Z,1.60
2023-11-12T07:15:56.460Z,1.70
2023-11-12T07:18:24.857Z,1.65
2023-11-12T07:20:51.898Z,2.10
2023-11-12T07:23:18.886Z,1.60
2023-11-12T07:25:45.577Z,1.40
2023-11-12T07:28:12.278Z,1.50
2023-11-12T07:30:40.618Z,2.00
2023-11-12T07:33:07.507Z,1.63
2023-11-12T07:35:34.319Z,1.67
2023-11-12T07:38:02.112Z,1.60
2023-11-12T07:40:28.840Z,1.73
2023-11-12T07:42:57.174Z,1.40
2023-11-12T07:45:28.151Z,1.73
2023-11-12T07:48:02.050Z,1.55
2023-11-12T07:50:29.490Z,1.98
2023-11-12T07:52:56.401Z,1.92
2023-11-12T07:55:23.038Z,1.90
2023-11-12T07:57:49.709Z,1.67
2023-11-12T08:00:16.703Z,1.52
2023-11-12T08:02:43.629Z,1.60
2023-11-12T08:05:11.388Z,2.08
2023-11-12T08:07:38.678Z,2.20
2023-11-12T08:10:06.872Z,2.15
2023-11-12T08:12:33.574Z,2.47
2023-11-12T08:15:00.296Z,2.50
2023-11-12T08:17:27.187Z,1.90
2023-11-12T08:19:54.247Z,2.15
2023-11-12T08:22:21.540Z,2.90
2023-11-12T08:24:48.355Z,2.17
2023-11-12T08:27:15.207Z,1.98
2023-11-12T08:29:41.825Z,1.90
2023-11-12T08:32:08.669Z,2.30
2023-11-12T08:34:35.380Z,2.15
2023-11-12T08:37:02.071Z,3.30
2023-11-12T08:39:29.238Z,4.32
2023-11-12T08:41:56.026Z,4.50
2023-11-12T08:44:22.679Z,3.53
2023-11-12T08:46:52.411Z,2.08
2023-11-12T08:49:20.032Z,1.77
2023-11-12T08:51:46.719Z,1.75
2023-11-12T08:54:13.972Z,2.30
2023-11-12T08:56:40.894Z,2.30
2023-11-12T08:59:08.837Z,2.00
2023-11-12T09:01:36.215Z,1.88
2023-11-12T09:04:03.377Z,2.10
2023-11-12T09:06:30.063Z,2.95
2023-11-12T09:08:57.757Z,3.00
2023-11-12T09:11:24.590Z,2.70
2023-11-12T09:13:51.408Z,2.50
2023-11-12T09:16:18.240Z,3.08
2023-11-12T09:18:44.968Z,2.30
2023-11-12T09:21:11.618Z,2.20
2023-11-12T09:23:39.628Z,1.90
2023-11-12T09:26:06.411Z,1.83
2023-11-12T09:28:33.037Z,2.13
2023-11-12T09:31:00.818Z,1.50
2023-11-12T09:33:28.790Z,1.90
2023-11-12T09:35:55.613Z,2.30
2023-11-12T09:38:22.551Z,1.83
2023-11-12T09:40:49.659Z,1.80
2023-11-12T09:43:16.483Z,2.35
2023-11-12T09:45:45.414Z,2.00
2023-11-12T09:48:24.237Z,2.50
2023-11-12T09:50:51.858Z,2.58
2023-11-12T09:53:18.566Z,3.35
2023-11-12T09:55:46.374Z,2.30
2023-11-12T09:58:13.359Z,2.40
2023-11-12T10:00:40.128Z,2.60
2023-11-12T10:03:11.931Z,2.67
2023-11-12T10:05:40.064Z,3.17
2023-11-12T10:08:06.937Z,3.75
2023-11-12T10:10:35.044Z,5.10
2023-11-12T10:13:05.570Z,4.20
2023-11-12T10:15:35.756Z,4.50
2023-11-12T10:18:05.163Z,5.18
2023-11-12T10:20:40.378Z,6.47
2023-11-12T10:23:30.224Z,5.70
2023-11-12T10:25:59.877Z,5.80
2023-11-12T10:28:34.539Z,6.28
2023-11-12T10:31:02.174Z,5.13
2023-11-12T10:33:29.230Z,5.03
2023-11-12T10:35:59.138Z,6.65
2023-11-12T10:38:26.299Z,4.43
2023-11-12T10:41:06.103Z,5.95
2023-11-12T10:43:34.226Z,5.85
2023-11-12T10:46:04.921Z,5.55
2023-11-12T10:48:36.850Z,4.97
2023-11-12T10:51:08.415Z,5.20
2023-11-12T10:53:36.407Z,5.25
2023-11-12T10:56:06.741Z,5.25
2023-11-12T10:58:34.194Z,5.13
2023-11-12T11:01:04.831Z,6.45
2023-11-12T11:03:35.330Z,5.13
2023-11-12T11:06:07.109Z,5.70
2023-11-12T11:08:35.668Z,4.47
2023-11-12T11:11:08.251Z,3.97
2023-11-12T11:13:37.419Z,3.90
2023-11-12T11:16:04.406Z,4.10
2023-11-12T11:18:34.089Z,3.78
2023-11-12T11:21:04.520Z,3.60
2023-11-12T11:23:41.987Z,3.95
2023-11-12T11:26:31.546Z,4.20
2023-11-12T11:29:05.899Z,4.30
2023-11-12T11:31:33.717Z,4.93
2023-11-12T11:34:01.785Z,4.20
2023-11-12T11:36:28.586Z,4.65
2023-11-12T11:39:16.811Z,4.90
2023-11-12T11:41:49.465Z,5.38
2023-11-12T11:44:37.813Z,5.68
2023-11-12T11:47:15.289Z,6.07
2023-11-12T11:49:46.052Z,6.40
2023-11-12T11:52:19.744Z,6.28
2023-11-12T11:54:47.413Z,6.70
2023-11-12T11:57:19.656Z,6.85
2023-11-12T11:59:47.163Z,6.82
2023-11-12T12:02:17.502Z,6.30
2023-11-12T12:04:51.381Z,5.78
2023-11-12T12:07:30.988Z,3.97
2023-11-12T12:10:00.114Z,3.72
2023-11-12T12:12:27.960Z,3.72
2023-11-12T12:14:56.065Z,3.90
2023-11-12T12:17:23.467Z,3.25
2023-11-12T12:19:54.537Z,3.15
2023-11-12T12:22:28.064Z,3.30
2023-11-12T12:24:57.590Z,3.22
2023-11-12T12:27:25.425Z,2.70
2023-11-12T12:29:53.084Z,2.88
2023-11-12T12:32:21.301Z,2.30
2023-11-12T12:35:01.021Z,2.40
2023-11-12T12:37:32.313Z,2.65
2023-11-12T12:40:04.976Z,2.33
2023-11-12T12:42:32.227Z,2.45
2023-11-12T12:44:59.483Z,2.15
2023-11-12T12:47:35.607Z,2.22
2023-11-12T12:50:34.033Z,1.90
2023-11-12T12:53:19.183Z,2.03
2023-11-12T12:55:47.484Z,2.65
2023-11-12T12:58:15.479Z,2.30
2023-11-12T13:00:46.748Z,2.35
2023-11-12T13:03:31.580Z,2.40
2023-11-12T13:05:59.248Z,2.42
2023-11-12T13:08:26.154Z,1.90
2023-11-12T13:10:53.801Z,2.17
2023-11-12T13:13:22.792Z,2.30
2023-11-12T13:15:49.536Z,2.25
2023-11-12T13:18:16.643Z,2.20
2023-11-12T13:20:45.895Z,2.15
2023-11-12T13:23:12.941Z,2.35
2023-11-12T13:25:39.825Z,2.50
2023-11-12T13:28:10.083Z,2.30
2023-11-12T13:30:37.660Z,2.67
2023-11-12T13:33:08.595Z,2.10
2023-11-12T13:35:35.546Z,2.55
2023-11-12T13:38:02.246Z,2.40
2023-11-12T13:40:29.134Z,2.30
2023-11-12T13:42:56.001Z,2.33
2023-11-12T13:45:23.835Z,2.42
2023-11-12T13:47:50.566Z,2.13
2023-11-12T13:50:25.641Z,2.58
2023-11-12T13:52:59.210Z,2.58
2023-11-12T13:55:29.186Z,2.30
2023-11-12T13:57:58.295Z,2.42
2023-11-12T14:00:31.775Z,2.20
2023-11-12T14:03:01.962Z,2.30
2023-11-12T14:05:29.057Z,2.40
2023-11-12T14:07:57.167Z,3.15
2023-11-12T14:10:24.055Z,2.53
2023-11-12T14:12:51.450Z,2.83
2023-11-12T14:15:19.980Z,2.70
2023-11-12T14:17:47.201Z,2.70
2023-11-12T14:20:22.337Z,2.60
2023-11-12T14:22:49.866Z,2.38
2023-11-12T14:25:19.969Z,2.28
2023-11-12T14:27:49.679Z,2.55
2023-11-12T14:30:20.504Z,2.63
2023-11-12T14:32:48.638Z,2.78
2023-11-12T14:35:19.041Z,2.90
2023-11-12T14:37:48.783Z,2.58
2023-11-12T14:40:16.129Z,2.72
2023-11-12T14:42:43.194Z,2.72
2023-11-12T14:45:21.376Z,3.22
2023-11-12T14:47:55.517Z,5.10
2023-11-12T14:50:22.979Z,8.15
2023-11-12T14:52:51.983Z,6.22
2023-11-12T14:55:25.232Z,4.80
2023-11-12T14:57:56.487Z,4.70
2023-11-12T15:00:31.590Z,4.72
2023-11-12T15:02:59.947Z,3.42
2023-11-12T15:05:29.090Z,2.90
2023-11-12T15:07:55.809Z,5.00
2023-11-12T15:10:22.447Z,3.50
2023-11-12T15:12:49.670Z,3.75
2023-11-12T15:15:17.193Z,3.92
2023-11-12T15:17:43.871Z,3.33
2023-11-12T15:20:11.075Z,3.35
2023-11-12T15:22:37.880Z,11.07
2023-11-12T15:25:05.425Z,13.70
2023-11-12T15:27:32.263Z,6.10
2023-11-12T15:29:59.177Z,9.80
2023-11-12T15:32:28.483Z,11.10
2023-11-12T15:34:55.273Z,10.85
2023-11-12T15:37:22.264Z,8.30
2023-11-12T15:39:49.189Z,8.63
2023-11-12T15:42:16.529Z,11.95
2023-11-12T15:44:49.358Z,9.70
2023-11-12T15:47:19.427Z,9.75
2023-11-12T15:49:47.871Z,9.48
2023-11-12T15:52:15.102Z,7.90
2023-11-12T15:54:47.063Z,6.25
2023-11-12T15:57:14.917Z,7.40
2023-11-12T15:59:43.924Z,7.60
2023-11-12T16:02:10.681Z,7.05
2023-11-12T16:04:37.413Z,6.80
2023-11-12T16:07:04.620Z,7.25
2023-11-12T16:09:31.636Z,6.43
2023-11-12T16:11:59.204Z,6.97
2023-11-12T16:14:25.982Z,6.82
2023-11-12T16:16:52.607Z,7.50
2023-11-12T16:19:19.393Z,8.00
2023-11-12T16:21:48.009Z,10.10
2023-11-12T16:24:15.706Z,8.43
2023-11-12T16:26:42.714Z,9.10
2023-11-12T16:29:10.049Z,11.40
2023-11-12T16:31:37.067Z,10.40
2023-11-12T16:34:04.119Z,15.77
2023-11-12T16:36:30.843Z,23.98
2023-11-12T16:38:58.601Z,22.38
2023-11-12T16:41:25.240Z,21.35
2023-11-12T16:43:51.880Z,26.23
2023-11-12T16:46:18.636Z,25.63
2023-11-12T16:48:45.305Z,22.92
2023-11-12T16:51:12.128Z,27.40
2023-11-12T16:53:38.850Z,21.98
2023-11-12T16:56:06.239Z,21.63
2023-11-12T16:58:33.053Z,19.58
2023-11-12T17:01:00.246Z,18.20
2023-11-12T17:03:27.618Z,14.63
2023-11-12T17:05:54.277Z,16.65
2023-11-12T17:08:20.904Z,13.90
2023-11-12T17:10:48.565Z,10.98
2023-11-12T17:13:15.164Z,6.32
2023-11-12T17:15:42.280Z,7.35
2023-11-12T17:18:09.064Z,8.18
2023-11-12T17:20:35.834Z,7.97
2023-11-12T17:23:05.186Z,6.97
2023-11-12T17:25:32.058Z,6.03
2023-11-12T17:27:59.564Z,6.97
2023-11-12T17:30:26.390Z,6.88
2023-11-12T17:32:53.065Z,7.03
2023-11-12T17:35:20.006Z,6.38
2023-11-12T17:37:46.706Z,7.30
2023-11-12T17:40:13.592Z,5.75
2023-11-12T17:42:42.657Z,7.13
2023-11-12T17:45:12.109Z,9.55
2023-11-12T17:47:39.564Z,8.85
2023-11-12T17:50:07.758Z,11.27
2023-11-12T17:52:34.398Z,6.22
2023-11-12T17:55:03.687Z,7.25
2023-11-12T17:57:31.891Z,14.02
2023-11-12T17:59:59.901Z,12.63
2023-11-12T18:02:26.652Z,17.13
2023-11-12T18:04:53.592Z,25.83
2023-11-12T18:07:21.020Z,24.45
2023-11-12T18:09:47.675Z,24.45
2023-11-12T18:12:14.748Z,21.38
2023-11-12T18:14:41.427Z,20.15
2023-11-12T18:17:08.134Z,21.45
2023-11-12T18:19:34.782Z,20.33
2023-11-12T18:22:02.004Z,19.73
2023-11-12T18:24:28.663Z,19.35
2023-11-12T18:26:56.642Z,17.90
2023-11-12T18:29:23.814Z,16.25
2023-11-12T18:31:53.838Z,12.40
2023-11-12T18:34:20.708Z,17.15
2023-11-12T18:36:47.381Z,14.85
2023-11-12T18:39:14.092Z,21.17
2023-11-12T18:41:42.128Z,23.33
2023-11-12T18:44:10.114Z,17.15
2023-11-12T18:46:39.948Z,16.75
2023-11-12T18:49:06.724Z,15.93
2023-11-12T18:51:33.371Z,19.35
2023-11-12T18:54:00.914Z,20.55
2023-11-12T18:56:27.585Z,25.30
2023-11-12T18:58:57.183Z,23.52
2023-11-12T19:01:27.036Z,25.23
2023-11-12T19:03:53.929Z,26.40
2023-11-12T19:06:20.831Z,25.15
2023-11-12T19:08:48.000Z,21.60
2023-11-12T19:11:14.672Z,20.98
2023-11-12T19:13:41.716Z,19.33
2023-11-12T19:16:08.653Z,17.08
2023-11-12T19:18:36.140Z,17.73
2023-11-12T19:21:04.439Z,16.65
2023-11-12T19:23:31.729Z,16.10
2023-11-12T19:25:58.736Z,17.70
2023-11-12T19:28:25.406Z,16.10
2023-11-12T19:30:52.116Z,17.08
2023-11-12T19:33:18.956Z,25.77
2023-11-12T19:35:45.622Z,25.08
2023-11-12T19:38:16.269Z,22.20
2023-11-12T19:40:44.858Z,17.52
2023-11-12T19:43:12.882Z,14.63
2023-11-12T19:45:39.899Z,13.57
2023-11-12T19:48:06.892Z,15.02
2023-11-12T19:50:37.744Z,17.90
2023-11-12T19:53:04.477Z,12.10
2023-11-12T19:55:32.528Z,11.48
2023-11-12T19:57:59.233Z,10.45
2023-11-12T20:00:25.911Z,11.70
2023-11-12T20:02:53.586Z,14.00
2023-11-12T20:05:20.463Z,12.85
2023-11-12T20:07:47.171Z,12.80
2023-11-12T20:10:14.474Z,15.02
2023-11-12T20:12:41.682Z,19.23
2023-11-12T20:15:09.602Z,16.83
2023-11-12T20:17:36.957Z,16.92
2023-11-12T20:20:05.072Z,26.98
2023-11-12T20:22:33.001Z,15.23
2023-11-12T20:24:59.847Z,13.65
2023-11-12T20:27:26.636Z,15.23
2023-11-12T20:29:56.994Z,20.73
2023-11-12T20:32:23.743Z,20.00
2023-11-12T20:34:51.511Z,19.63
2023-11-12T20:37:20.159Z,16.75
2023-11-12T20:39:47.017Z,16.77
2023-11-12T20:42:14.493Z,22.08
2023-11-12T20:44:41.964Z,18.02
2023-11-12T20:47:14.265Z,16.73
2023-11-12T20:49:41.151Z,9.63
2023-11-12T20:52:09.724Z,10.18
2023-11-12T20:54:38.509Z,15.27
2023-11-12T20:57:07.861Z,12.57
2023-11-12T20:59:34.644Z,7.60
2023-11-12T21:02:10.123Z,8.27
2023-11-12T21:04:45.053Z,8.63
2023-11-12T21:07:13.812Z,7.90
2023-11-12T21:09:40.780Z,7.60
2023-11-12T21:12:07.903Z,7.43
2023-11-12T21:14:34.597Z,7.60
2023-11-12T21:17:02.327Z,7.97
2023-11-12T21:19:28.922Z,7.15
2023-11-12T21:21:55.556Z,8.23
2023-11-12T21:24:22.253Z,8.50
2023-11-12T21:26:49.202Z,7.45
2023-11-12T21:29:15.863Z,7.13
2023-11-12T21:31:46.287Z,6.50
2023-11-12T21:34:13.820Z,6.00
2023-11-12T21:36:40.681Z,7.00
2023-11-12T21:39:09.748Z,9.35
2023-11-12T21:41:37.817Z,16.83
2023-11-12T21:44:08.606Z,12.43
2023-11-12T21:46:35.672Z,13.20
2023-11-12T21:49:02.404Z,12.57
2023-11-12T21:51:31.568Z,12.70
2023-11-12T21:53:58.225Z,10.18
2023-11-12T21:56:25.293Z,9.13
2023-11-12T21:58:52.085Z,10.68
2023-11-12T22:01:20.342Z,7.55
2023-11-12T22:03:47.092Z,11.23
2023-11-12T22:06:13.960Z,16.67
2023-11-12T22:08:40.578Z,9.38
2023-11-12T22:11:07.213Z,12.50
2023-11-12T22:13:33.839Z,10.52
2023-11-12T22:16:00.935Z,8.73
2023-11-12T22:18:27.571Z,9.48
2023-11-12T22:20:57.403Z,8.40
2023-11-12T22:23:24.022Z,8.50
2023-11-12T22:25:51.170Z,7.50
2023-11-12T22:28:18.030Z,7.53
2023-11-12T22:30:44.835Z,7.40
2023-11-12T22:33:11.485Z,6.80
2023-11-12T22:35:38.114Z,6.75
2023-11-12T22:38:04.716Z,6.38
2023-11-12T22:40:31.380Z,7.38
2023-11-12T22:42:58.060Z,8.90
2023-11-12T22:45:25.232Z,11.50
2023-11-12T22:47:52.098Z,10.48
2023-11-12T22:50:22.054Z,8.73
2023-11-12T22:52:48.791Z,8.60
2023-11-12T22:55:16.105Z,8.82
2023-11-12T22:57:44.840Z,8.63
2023-11-12T23:00:40.867Z,8.80
2023-11-12T23:03:11.442Z,8.40
2023-11-12T23:05:38.162Z,7.43
2023-11-12T23:08:07.364Z,7.50
2023-11-12T23:10:38.220Z,7.78
2023-11-12T23:13:06.112Z,7.90
2023-11-12T23:15:32.848Z,8.00
2023-11-12T23:18:02.579Z,7.60
2023-11-12T23:20:29.551Z,8.05
2023-11-12T23:22:56.555Z,7.30
2023-11-12T23:25:23.291Z,7.57
2023-11-12T23:27:50.173Z,7.38
2023-11-12T23:30:17.206Z,6.97
2023-11-12T23:32:43.847Z,6.93
2023-11-12T23:35:11.773Z,6.97
2023-11-12T23:37:38.447Z,6.28
2023-11-12T23:40:06.212Z,6.22
2023-11-12T23:42:32.877Z,6.63
2023-11-12T23:44:59.477Z,7.55
2023-11-12T23:47:26.345Z,10.30
2023-11-12T23:49:54.353Z,9.77
2023-11-12T23:52:21.220Z,7.78
2023-11-12T23:54:49.164Z,6.78
2023-11-12T23:57:15.804Z,6.93
2023-11-12T23:59:43.978Z,6.22
